sensor_id;sensor_type;location;lat;lon;timestamp;P1;durP1;ratioP1;P2;durP2;ratioP2
80647;SDS011;70012;0.000;0.000;2023-05-28T00:01:32;11.90;;;5.25;;
80647;SDS011;70012;0.000;0.000;2023-05-28T00:03:59;17.00;;;5.07;;
80647;SDS011;70012;0.000;0.000;2023-05-28T00:06:27;8.57;;;4.82;;
80647;SDS011;70012;0.000;0.000;2023-05-28T00:08:54;10.43;;;4.80;;
80647;SDS011;70012;0.000;0.000;2023-05-28T00:13:48;10.52;;;5.03;;
80647;SDS011;70012;0.000;0.000;2023-05-28T00:16:15;10.98;;;5.10;;
80647;SDS011;70012;0.000;0.000;2023-05-28T00:18:42;10.50;;;5.43;;
80647;SDS011;70012;0.000;0.000;2023-05-28T00:21:09;10.77;;;4.90;;
80647;SDS011;70012;0.000;0.000;2023-05-28T00:23:37;8.25;;;4.85;;
80647;SDS011;70012;0.000;0.000;2023-05-28T00:26:05;10.15;;;4.68;;
80647;SDS011;70012;0.000;0.000;2023-05-28T00:30:58;8.77;;;4.43;;
80647;SDS011;70012;0.000;0.000;2023-05-28T00:33:25;12.90;;;4.95;;
80647;SDS011;70012;0.000;0.000;2023-05-28T00:35:52;8.23;;;4.68;;
80647;SDS011;70012;0.000;0.000;2023-05-28T00:38:23;9.95;;;5.05;;
80647;SDS011;70012;0.000;0.000;2023-05-28T00:40:52;9.02;;;5.10;;
80647;SDS011;70012;0.000;0.000;2023-05-28T00:43:21;12.80;;;5.57;;
80647;SDS011;70012;0.000;0.000;2023-05-28T00:45:49;10.30;;;4.78;;
80647;SDS011;70012;0.000;0.000;2023-05-28T00:48:18;9.35;;;4.75;;
80647;SDS011;70012;0.000;0.000;2023-05-28T00:50:46;15.95;;;5.25;;
80647;SDS011;70012;0.000;0.000;2023-05-28T00:53:13;9.23;;;5.20;;
80647;SDS011;70012;0.000;0.000;2023-05-28T00:55:42;8.77;;;4.82;;
80647;SDS011;70012;0.000;0.000;2023-05-28T00:58:09;7.55;;;5.22;;
80647;SDS011;70012;0.000;0.000;2023-05-28T01:00:37;11.68;;;4.88;;
80647;SDS011;70012;0.000;0.000;2023-05-28T01:03:04;9.25;;;4.57;;
80647;SDS011;70012;0.000;0.000;2023-05-28T01:05:32;9.68;;;4.93;;
80647;SDS011;70012;0.000;0.000;2023-05-28T01:08:12;11.00;;;5.18;;
80647;SDS011;70012;0.000;0.000;2023-05-28T01:10:41;10.18;;;4.57;;
80647;SDS011;70012;0.000;0.000;2023-05-28T01:13:08;12.68;;;5.10;;
80647;SDS011;70012;0.000;0.000;2023-05-28T01:15:35;9.85;;;5.03;;
80647;SDS011;70012;0.000;0.000;2023-05-28T01:18:04;11.77;;;5.15;;
80647;SDS011;70012;0.000;0.000;2023-05-28T01:20:31;8.20;;;5.10;;
80647;SDS011;70012;0.000;0.000;2023-05-28T01:22:59;12.20;;;4.85;;
80647;SDS011;70012;0.000;0.000;2023-05-28T01:25:32;10.00;;;5.75;;
80647;SDS011;70012;0.000;0.000;2023-05-28T01:28:01;9.45;;;4.82;;
80647;SDS011;70012;0.000;0.000;2023-05-28T01:30:30;9.77;;;5.05;;
80647;SDS011;70012;0.000;0.000;2023-05-28T01:32:59;9.20;;;4.45;;
80647;SDS011;70012;0.000;0.000;2023-05-28T01:35:26;12.00;;;4.28;;
80647;SDS011;70012;0.000;0.000;2023-05-28T01:37:53;9.25;;;4.93;;
80647;SDS011;70012;0.000;0.000;2023-05-28T01:40:25;9.25;;;4.72;;
80647;SDS011;70012;0.000;0.000;2023-05-28T01:42:53;7.90;;;4.32;;
80647;SDS011;70012;0.000;0.000;2023-05-28T01:45:25;7.95;;;4.47;;
80647;SDS011;70012;0.000;0.000;2023-05-28T01:47:56;8.68;;;4.78;;
80647;SDS011;70012;0.000;0.000;2023-05-28T01:50:26;10.07;;;4.57;;
80647;SDS011;70012;0.000;0.000;2023-05-28T01:52:55;6.25;;;4.38;;
80647;SDS011;70012;0.000;0.000;2023-05-28T01:57:50;8.20;;;4.00;;
80647;SDS011;70012;0.000;0.000;2023-05-28T02:00:17;9.30;;;4.97;;
80647;SDS011;70012;0.000;0.000;2023-05-28T02:02:44;9.80;;;4.90;;
80647;SDS011;70012;0.000;0.000;2023-05-28T02:07:37;9.20;;;4.22;;
80647;SDS011;70012;0.000;0.000;2023-05-28T02:10:04;6.70;;;4.32;;
80647;SDS011;70012;0.000;0.000;2023-05-28T02:12:32;9.02;;;4.80;;
80647;SDS011;70012;0.000;0.000;2023-05-28T02:14:59;6.07;;;3.92;;
80647;SDS011;70012;0.000;0.000;2023-05-28T02:19:52;9.77;;;3.83;;
80647;SDS011;70012;0.000;0.000;2023-05-28T02:24:45;9.55;;;4.60;;
80647;SDS011;70012;0.000;0.000;2023-05-28T02:27:13;8.55;;;4.80;;
80647;SDS011;70012;0.000;0.000;2023-05-28T02:29:41;11.25;;;4.50;;
80647;SDS011;70012;0.000;0.000;2023-05-28T02:32:09;10.13;;;4.93;;
80647;SDS011;70012;0.000;0.000;2023-05-28T02:34:36;9.75;;;4.80;;
80647;SDS011;70012;0.000;0.000;2023-05-28T02:37:04;8.23;;;4.47;;
80647;SDS011;70012;0.000;0.000;2023-05-28T02:41:58;8.95;;;4.70;;
80647;SDS011;70012;0.000;0.000;2023-05-28T02:44:24;8.38;;;4.80;;
80647;SDS011;70012;0.000;0.000;2023-05-28T02:46:51;11.20;;;5.18;;
80647;SDS011;70012;0.000;0.000;2023-05-28T02:49:18;10.98;;;4.70;;
80647;SDS011;70012;0.000;0.000;2023-05-28T02:51:44;11.05;;;5.25;;
80647;SDS011;70012;0.000;0.000;2023-05-28T02:54:11;9.90;;;4.70;;
80647;SDS011;70012;0.000;0.000;2023-05-28T02:56:38;14.98;;;7.03;;
80647;SDS011;70012;0.000;0.000;2023-05-28T02:59:05;8.13;;;4.68;;
80647;SDS011;70012;0.000;0.000;2023-05-28T03:01:31;10.95;;;4.43;;
80647;SDS011;70012;0.000;0.000;2023-05-28T03:06:25;6.43;;;4.55;;
80647;SDS011;70012;0.000;0.000;2023-05-28T03:08:51;8.45;;;5.22;;
80647;SDS011;70012;0.000;0.000;2023-05-28T03:11:18;9.88;;;4.72;;
80647;SDS011;70012;0.000;0.000;2023-05-28T03:13:45;11.02;;;4.78;;
80647;SDS011;70012;0.000;0.000;2023-05-28T03:16:12;9.73;;;4.25;;
80647;SDS011;70012;0.000;0.000;2023-05-28T03:18:39;6.57;;;3.78;;
80647;SDS011;70012;0.000;0.000;2023-05-28T03:21:09;7.82;;;4.50;;
80647;SDS011;70012;0.000;0.000;2023-05-28T03:23:36;11.32;;;5.13;;
80647;SDS011;70012;0.000;0.000;2023-05-28T03:26:03;9.18;;;4.72;;
80647;SDS011;70012;0.000;0.000;2023-05-28T03:28:29;11.50;;;4.32;;
80647;SDS011;70012;0.000;0.000;2023-05-28T03:30:56;8.32;;;4.97;;
80647;SDS011;70012;0.000;0.000;2023-05-28T03:33:24;10.02;;;4.45;;
80647;SDS011;70012;0.000;0.000;2023-05-28T03:35:51;10.52;;;4.68;;
80647;SDS011;70012;0.000;0.000;2023-05-28T03:38:18;8.85;;;4.32;;
80647;SDS011;70012;0.000;0.000;2023-05-28T03:40:45;9.60;;;4.55;;
80647;SDS011;70012;0.000;0.000;2023-05-28T03:43:12;9.00;;;5.30;;
80647;SDS011;70012;0.000;0.000;2023-05-28T03:48:05;14.60;;;5.50;;
80647;SDS011;70012;0.000;0.000;2023-05-28T03:50:32;12.68;;;6.72;;
80647;SDS011;70012;0.000;0.000;2023-05-28T03:52:59;8.55;;;4.78;;
80647;SDS011;70012;0.000;0.000;2023-05-28T03:55:26;9.32;;;4.63;;
80647;SDS011;70012;0.000;0.000;2023-05-28T03:57:52;10.85;;;5.28;;
80647;SDS011;70012;0.000;0.000;2023-05-28T04:00:19;8.15;;;4.20;;
80647;SDS011;70012;0.000;0.000;2023-05-28T04:02:49;12.20;;;4.38;;
80647;SDS011;70012;0.000;0.000;2023-05-28T04:05:16;8.70;;;4.50;;
80647;SDS011;70012;0.000;0.000;2023-05-28T04:07:43;8.25;;;4.45;;
80647;SDS011;70012;0.000;0.000;2023-05-28T04:10:10;7.35;;;3.72;;
80647;SDS011;70012;0.000;0.000;2023-05-28T04:12:39;7.60;;;4.68;;
80647;SDS011;70012;0.000;0.000;2023-05-28T04:15:06;9.50;;;4.43;;
80647;SDS011;70012;0.000;0.000;2023-05-28T04:17:33;11.63;;;4.45;;
80647;SDS011;70012;0.000;0.000;2023-05-28T04:22:27;7.85;;;4.25;;
80647;SDS011;70012;0.000;0.000;2023-05-28T04:27:23;11.32;;;4.28;;
80647;SDS011;70012;0.000;0.000;2023-05-28T04:29:50;6.53;;;3.55;;
80647;SDS011;70012;0.000;0.000;2023-05-28T04:32:18;10.55;;;5.22;;
80647;SDS011;70012;0.000;0.000;2023-05-28T04:34:46;8.07;;;4.60;;
80647;SDS011;70012;0.000;0.000;2023-05-28T04:37:13;11.77;;;4.97;;
80647;SDS011;70012;0.000;0.000;2023-05-28T04:39:41;7.38;;;3.92;;
80647;SDS011;70012;0.000;0.000;2023-05-28T04:42:08;7.85;;;4.40;;
80647;SDS011;70012;0.000;0.000;2023-05-28T04:44:39;11.40;;;4.50;;
80647;SDS011;70012;0.000;0.000;2023-05-28T04:47:07;7.63;;;4.13;;
80647;SDS011;70012;0.000;0.000;2023-05-28T04:49:35;8.55;;;4.13;;
80647;SDS011;70012;0.000;0.000;2023-05-28T04:52:02;7.15;;;4.25;;
80647;SDS011;70012;0.000;0.000;2023-05-28T04:54:29;12.27;;;4.57;;
80647;SDS011;70012;0.000;0.000;2023-05-28T04:56:55;6.78;;;3.85;;
80647;SDS011;70012;0.000;0.000;2023-05-28T04:59:22;7.93;;;4.60;;
80647;SDS011;70012;0.000;0.000;2023-05-28T05:04:16;9.85;;;4.47;;
80647;SDS011;70012;0.000;0.000;2023-05-28T05:06:43;8.85;;;4.03;;
80647;SDS011;70012;0.000;0.000;2023-05-28T05:09:09;9.15;;;4.93;;
80647;SDS011;70012;0.000;0.000;2023-05-28T05:11:36;5.38;;;3.78;;
80647;SDS011;70012;0.000;0.000;2023-05-28T05:14:03;8.55;;;4.45;;
80647;SDS011;70012;0.000;0.000;2023-05-28T05:16:30;7.55;;;4.20;;
80647;SDS011;70012;0.000;0.000;2023-05-28T05:18:56;8.13;;;4.43;;
80647;SDS011;70012;0.000;0.000;2023-05-28T05:21:23;9.20;;;4.50;;
80647;SDS011;70012;0.000;0.000;2023-05-28T05:23:50;7.65;;;5.03;;
80647;SDS011;70012;0.000;0.000;2023-05-28T05:26:17;10.90;;;5.00;;
80647;SDS011;70012;0.000;0.000;2023-05-28T05:33:40;8.93;;;4.60;;
80647;SDS011;70012;0.000;0.000;2023-05-28T05:36:08;10.43;;;4.63;;
80647;SDS011;70012;0.000;0.000;2023-05-28T05:38:36;9.27;;;4.35;;
80647;SDS011;70012;0.000;0.000;2023-05-28T05:41:06;8.63;;;4.60;;
80647;SDS011;70012;0.000;0.000;2023-05-28T05:46:00;14.32;;;5.38;;
80647;SDS011;70012;0.000;0.000;2023-05-28T05:48:26;8.73;;;4.88;;
80647;SDS011;70012;0.000;0.000;2023-05-28T05:50:54;9.00;;;5.18;;
80647;SDS011;70012;0.000;0.000;2023-05-28T05:53:21;11.88;;;5.53;;
80647;SDS011;70012;0.000;0.000;2023-05-28T05:55:49;7.72;;;4.63;;
80647;SDS011;70012;0.000;0.000;2023-05-28T05:58:15;9.90;;;4.80;;
80647;SDS011;70012;0.000;0.000;2023-05-28T06:00:42;12.90;;;4.75;;
80647;SDS011;70012;0.000;0.000;2023-05-28T06:03:10;12.32;;;5.43;;
80647;SDS011;70012;0.000;0.000;2023-05-28T06:05:36;10.27;;;5.82;;
80647;SDS011;70012;0.000;0.000;2023-05-28T06:08:03;14.27;;;6.45;;
80647;SDS011;70012;0.000;0.000;2023-05-28T06:10:30;8.82;;;5.75;;
80647;SDS011;70012;0.000;0.000;2023-05-28T06:12:57;13.35;;;5.78;;
80647;SDS011;70012;0.000;0.000;2023-05-28T06:15:27;10.70;;;5.50;;
80647;SDS011;70012;0.000;0.000;2023-05-28T06:17:55;10.52;;;6.10;;
80647;SDS011;70012;0.000;0.000;2023-05-28T06:20:22;8.48;;;5.78;;
80647;SDS011;70012;0.000;0.000;2023-05-28T06:22:49;9.50;;;5.70;;
80647;SDS011;70012;0.000;0.000;2023-05-28T06:25:16;11.45;;;5.13;;
80647;SDS011;70012;0.000;0.000;2023-05-28T06:27:45;9.60;;;5.22;;
80647;SDS011;70012;0.000;0.000;2023-05-28T06:30:12;11.43;;;5.53;;
80647;SDS011;70012;0.000;0.000;2023-05-28T06:32:41;11.60;;;5.68;;
80647;SDS011;70012;0.000;0.000;2023-05-28T06:35:09;9.68;;;5.07;;
80647;SDS011;70012;0.000;0.000;2023-05-28T06:37:37;16.95;;;6.03;;
80647;SDS011;70012;0.000;0.000;2023-05-28T06:40:06;12.20;;;5.53;;
80647;SDS011;70012;0.000;0.000;2023-05-28T06:42:34;11.50;;;5.60;;
80647;SDS011;70012;0.000;0.000;2023-05-28T06:45:04;9.85;;;4.93;;
80647;SDS011;70012;0.000;0.000;2023-05-28T06:47:33;10.70;;;5.88;;
80647;SDS011;70012;0.000;0.000;2023-05-28T06:50:00;8.20;;;5.18;;
80647;SDS011;70012;0.000;0.000;2023-05-28T06:52:27;11.95;;;5.40;;
80647;SDS011;70012;0.000;0.000;2023-05-28T06:54:54;11.38;;;5.10;;
80647;SDS011;70012;0.000;0.000;2023-05-28T06:57:21;11.45;;;5.95;;
80647;SDS011;70012;0.000;0.000;2023-05-28T06:59:47;10.52;;;5.68;;
80647;SDS011;70012;0.000;0.000;2023-05-28T07:02:18;11.68;;;5.68;;
80647;SDS011;70012;0.000;0.000;2023-05-28T07:04:46;10.82;;;5.50;;
80647;SDS011;70012;0.000;0.000;2023-05-28T07:07:14;10.68;;;5.18;;
80647;SDS011;70012;0.000;0.000;2023-05-28T07:09:42;9.88;;;4.70;;
80647;SDS011;70012;0.000;0.000;2023-05-28T07:12:08;7.50;;;4.50;;
80647;SDS011;70012;0.000;0.000;2023-05-28T07:14:35;8.77;;;4.57;;
80647;SDS011;70012;0.000;0.000;2023-05-28T07:17:03;7.50;;;4.55;;
80647;SDS011;70012;0.000;0.000;2023-05-28T07:19:29;8.52;;;4.47;;
80647;SDS011;70012;0.000;0.000;2023-05-28T07:21:59;9.98;;;4.90;;
80647;SDS011;70012;0.000;0.000;2023-05-28T07:24:26;6.65;;;4.35;;
80647;SDS011;70012;0.000;0.000;2023-05-28T07:26:54;12.95;;;5.55;;
80647;SDS011;70012;0.000;0.000;2023-05-28T07:29:21;9.80;;;4.82;;
80647;SDS011;70012;0.000;0.000;2023-05-28T07:31:48;11.90;;;4.63;;
80647;SDS011;70012;0.000;0.000;2023-05-28T07:34:15;8.68;;;4.85;;
80647;SDS011;70012;0.000;0.000;2023-05-28T07:36:41;8.73;;;4.93;;
80647;SDS011;70012;0.000;0.000;2023-05-28T07:39:08;10.32;;;5.13;;
80647;SDS011;70012;0.000;0.000;2023-05-28T07:41:36;9.23;;;4.68;;
80647;SDS011;70012;0.000;0.000;2023-05-28T07:44:03;10.75;;;4.75;;
80647;SDS011;70012;0.000;0.000;2023-05-28T07:46:29;10.13;;;4.25;;
80647;SDS011;70012;0.000;0.000;2023-05-28T07:48:56;10.00;;;5.13;;
80647;SDS011;70012;0.000;0.000;2023-05-28T07:51:23;11.88;;;4.97;;
80647;SDS011;70012;0.000;0.000;2023-05-28T07:53:52;8.27;;;4.78;;
80647;SDS011;70012;0.000;0.000;2023-05-28T07:56:20;8.80;;;4.38;;
80647;SDS011;70012;0.000;0.000;2023-05-28T07:58:48;6.60;;;4.07;;
80647;SDS011;70012;0.000;0.000;2023-05-28T08:01:15;9.30;;;5.47;;
80647;SDS011;70012;0.000;0.000;2023-05-28T08:03:42;7.97;;;4.32;;
80647;SDS011;70012;0.000;0.000;2023-05-28T08:06:09;8.07;;;4.82;;
80647;SDS011;70012;0.000;0.000;2023-05-28T08:08:35;10.18;;;4.47;;
80647;SDS011;70012;0.000;0.000;2023-05-28T08:11:02;8.13;;;4.07;;
80647;SDS011;70012;0.000;0.000;2023-05-28T08:13:29;10.13;;;3.85;;
80647;SDS011;70012;0.000;0.000;2023-05-28T08:15:57;8.13;;;4.15;;
80647;SDS011;70012;0.000;0.000;2023-05-28T08:18:28;7.90;;;4.53;;
80647;SDS011;70012;0.000;0.000;2023-05-28T08:20:55;6.60;;;4.25;;
80647;SDS011;70012;0.000;0.000;2023-05-28T08:23:22;7.60;;;4.57;;
80647;SDS011;70012;0.000;0.000;2023-05-28T08:25:49;10.90;;;3.88;;
80647;SDS011;70012;0.000;0.000;2023-05-28T08:28:16;9.48;;;4.63;;
80647;SDS011;70012;0.000;0.000;2023-05-28T08:30:43;7.30;;;3.72;;
80647;SDS011;70012;0.000;0.000;2023-05-28T08:33:11;6.90;;;4.15;;
80647;SDS011;70012;0.000;0.000;2023-05-28T08:35:38;9.13;;;4.03;;
80647;SDS011;70012;0.000;0.000;2023-05-28T08:38:04;7.20;;;4.38;;
80647;SDS011;70012;0.000;0.000;2023-05-28T08:40:31;8.63;;;4.13;;
80647;SDS011;70012;0.000;0.000;2023-05-28T08:43:05;10.90;;;4.43;;
80647;SDS011;70012;0.000;0.000;2023-05-28T08:45:32;8.57;;;4.32;;
80647;SDS011;70012;0.000;0.000;2023-05-28T08:48:00;7.75;;;4.57;;
80647;SDS011;70012;0.000;0.000;2023-05-28T08:50:30;10.23;;;4.25;;
80647;SDS011;70012;0.000;0.000;2023-05-28T08:52:57;8.43;;;4.47;;
80647;SDS011;70012;0.000;0.000;2023-05-28T08:55:26;8.15;;;4.43;;
80647;SDS011;70012;0.000;0.000;2023-05-28T08:57:53;9.50;;;3.95;;
80647;SDS011;70012;0.000;0.000;2023-05-28T09:00:20;9.55;;;4.13;;
80647;SDS011;70012;0.000;0.000;2023-05-28T09:02:48;8.43;;;4.20;;
80647;SDS011;70012;0.000;0.000;2023-05-28T09:05:16;10.23;;;4.30;;
80647;SDS011;70012;0.000;0.000;2023-05-28T09:07:42;10.43;;;4.72;;
80647;SDS011;70012;0.000;0.000;2023-05-28T09:10:12;10.40;;;5.22;;
80647;SDS011;70012;0.000;0.000;2023-05-28T09:12:39;8.95;;;5.00;;
80647;SDS011;70012;0.000;0.000;2023-05-28T09:15:08;7.40;;;4.72;;
80647;SDS011;70012;0.000;0.000;2023-05-28T09:17:35;9.90;;;4.47;;
80647;SDS011;70012;0.000;0.000;2023-05-28T09:20:08;10.23;;;4.57;;
80647;SDS011;70012;0.000;0.000;2023-05-28T09:22:39;9.00;;;4.80;;
80647;SDS011;70012;0.000;0.000;2023-05-28T09:25:06;9.25;;;4.35;;
80647;SDS011;70012;0.000;0.000;2023-05-28T09:27:34;7.72;;;4.22;;
80647;SDS011;70012;0.000;0.000;2023-05-28T09:30:05;9.15;;;3.97;;
80647;SDS011;70012;0.000;0.000;2023-05-28T09:32:34;6.10;;;3.55;;
80647;SDS011;70012;0.000;0.000;2023-05-28T09:35:05;8.30;;;4.00;;
80647;SDS011;70012;0.000;0.000;2023-05-28T09:37:34;6.05;;;3.15;;
80647;SDS011;70012;0.000;0.000;2023-05-28T09:40:05;8.20;;;3.65;;
80647;SDS011;70012;0.000;0.000;2023-05-28T09:42:36;11.32;;;3.90;;
80647;SDS011;70012;0.000;0.000;2023-05-28T09:45:08;8.73;;;4.68;;
80647;SDS011;70012;0.000;0.000;2023-05-28T09:47:42;8.98;;;3.67;;
80647;SDS011;70012;0.000;0.000;2023-05-28T09:50:13;7.32;;;4.13;;
80647;SDS011;70012;0.000;0.000;2023-05-28T09:52:39;6.72;;;3.83;;
80647;SDS011;70012;0.000;0.000;2023-05-28T09:55:12;9.68;;;3.92;;
80647;SDS011;70012;0.000;0.000;2023-05-28T09:57:45;7.53;;;4.10;;
80647;SDS011;70012;0.000;0.000;2023-05-28T10:00:14;5.63;;;3.63;;
80647;SDS011;70012;0.000;0.000;2023-05-28T10:05:25;9.13;;;3.88;;
80647;SDS011;70012;0.000;0.000;2023-05-28T10:07:55;5.85;;;3.88;;
80647;SDS011;70012;0.000;0.000;2023-05-28T10:10:22;13.82;;;4.50;;
80647;SDS011;70012;0.000;0.000;2023-05-28T10:12:50;7.63;;;3.90;;
80647;SDS011;70012;0.000;0.000;2023-05-28T10:15:19;8.00;;;4.22;;
80647;SDS011;70012;0.000;0.000;2023-05-28T10:17:47;9.57;;;4.35;;
80647;SDS011;70012;0.000;0.000;2023-05-28T10:20:15;8.40;;;3.80;;
80647;SDS011;70012;0.000;0.000;2023-05-28T10:22:43;9.07;;;3.78;;
80647;SDS011;70012;0.000;0.000;2023-05-28T10:25:10;7.55;;;4.10;;
80647;SDS011;70012;0.000;0.000;2023-05-28T10:27:37;7.85;;;4.00;;
80647;SDS011;70012;0.000;0.000;2023-05-28T10:30:10;6.45;;;3.55;;
80647;SDS011;70012;0.000;0.000;2023-05-28T10:32:39;8.90;;;3.53;;
80647;SDS011;70012;0.000;0.000;2023-05-28T10:35:10;8.40;;;4.00;;
80647;SDS011;70012;0.000;0.000;2023-05-28T10:37:39;6.18;;;3.53;;
80647;SDS011;70012;0.000;0.000;2023-05-28T10:40:07;6.90;;;3.75;;
80647;SDS011;70012;0.000;0.000;2023-05-28T10:42:38;6.55;;;4.05;;
80647;SDS011;70012;0.000;0.000;2023-05-28T10:45:08;7.00;;;3.10;;
80647;SDS011;70012;0.000;0.000;2023-05-28T10:47:39;7.03;;;3.90;;
80647;SDS011;70012;0.000;0.000;2023-05-28T10:50:11;8.40;;;3.58;;
80647;SDS011;70012;0.000;0.000;2023-05-28T10:53:26;8.65;;;4.03;;
80647;SDS011;70012;0.000;0.000;2023-05-28T10:55:47;7.65;;;3.63;;
80647;SDS011;70012;0.000;0.000;2023-05-28T10:58:22;11.30;;;4.32;;
80647;SDS011;70012;0.000;0.000;2023-05-28T11:00:51;7.00;;;3.35;;
80647;SDS011;70012;0.000;0.000;2023-05-28T11:03:37;6.57;;;4.22;;
80647;SDS011;70012;0.000;0.000;2023-05-28T11:06:08;7.47;;;4.40;;
80647;SDS011;70012;0.000;0.000;2023-05-28T11:08:40;8.15;;;4.00;;
80647;SDS011;70012;0.000;0.000;2023-05-28T11:11:09;5.85;;;3.80;;
80647;SDS011;70012;0.000;0.000;2023-05-28T11:13:42;7.95;;;3.80;;
80647;SDS011;70012;0.000;0.000;2023-05-28T11:16:10;11.20;;;4.07;;
80647;SDS011;70012;0.000;0.000;2023-05-28T11:18:37;6.32;;;3.72;;
80647;SDS011;70012;0.000;0.000;2023-05-28T11:21:05;6.90;;;3.38;;
80647;SDS011;70012;0.000;0.000;2023-05-28T11:23:34;8.27;;;3.65;;
80647;SDS011;70012;0.000;0.000;2023-05-28T11:26:03;6.35;;;3.47;;
80647;SDS011;70012;0.000;0.000;2023-05-28T11:28:43;6.07;;;4.13;;
80647;SDS011;70012;0.000;0.000;2023-05-28T11:31:14;6.18;;;3.17;;
80647;SDS011;70012;0.000;0.000;2023-05-28T11:33:40;5.28;;;3.80;;
80647;SDS011;70012;0.000;0.000;2023-05-28T11:36:07;7.72;;;4.35;;
80647;SDS011;70012;0.000;0.000;2023-05-28T11:38:34;6.13;;;4.45;;
80647;SDS011;70012;0.000;0.000;2023-05-28T11:41:01;7.00;;;3.97;;
80647;SDS011;70012;0.000;0.000;2023-05-28T11:43:28;8.02;;;4.20;;
80647;SDS011;70012;0.000;0.000;2023-05-28T11:45:59;5.63;;;3.92;;
80647;SDS011;70012;0.000;0.000;2023-05-28T11:48:26;6.57;;;3.53;;
80647;SDS011;70012;0.000;0.000;2023-05-28T11:50:58;6.45;;;3.63;;
80647;SDS011;70012;0.000;0.000;2023-05-28T11:53:44;5.93;;;4.25;;
80647;SDS011;70012;0.000;0.000;2023-05-28T11:56:12;6.20;;;3.67;;
80647;SDS011;70012;0.000;0.000;2023-05-28T11:58:45;6.25;;;4.28;;
80647;SDS011;70012;0.000;0.000;2023-05-28T12:01:15;6.70;;;4.25;;
80647;SDS011;70012;0.000;0.000;2023-05-28T12:03:43;6.07;;;3.58;;
80647;SDS011;70012;0.000;0.000;2023-05-28T12:06:11;7.15;;;4.40;;
80647;SDS011;70012;0.000;0.000;2023-05-28T12:08:41;6.90;;;4.47;;
80647;SDS011;70012;0.000;0.000;2023-05-28T12:11:08;6.70;;;4.25;;
80647;SDS011;70012;0.000;0.000;2023-05-28T12:13:35;5.30;;;3.78;;
80647;SDS011;70012;0.000;0.000;2023-05-28T12:16:10;8.32;;;4.72;;
80647;SDS011;70012;0.000;0.000;2023-05-28T12:18:42;11.90;;;4.30;;
80647;SDS011;70012;0.000;0.000;2023-05-28T12:21:12;9.27;;;4.95;;
80647;SDS011;70012;0.000;0.000;2023-05-28T12:23:39;6.30;;;4.35;;
80647;SDS011;70012;0.000;0.000;2023-05-28T12:26:15;7.18;;;4.45;;
80647;SDS011;70012;0.000;0.000;2023-05-28T12:28:49;8.45;;;4.55;;
80647;SDS011;70012;0.000;0.000;2023-05-28T12:31:16;5.60;;;4.38;;
80647;SDS011;70012;0.000;0.000;2023-05-28T12:33:45;7.57;;;4.50;;
80647;SDS011;70012;0.000;0.000;2023-05-28T12:36:13;7.38;;;4.32;;
80647;SDS011;70012;0.000;0.000;2023-05-28T12:38:40;9.13;;;4.68;;
80647;SDS011;70012;0.000;0.000;2023-05-28T12:41:06;8.02;;;4.53;;
80647;SDS011;70012;0.000;0.000;2023-05-28T12:43:33;7.63;;;4.30;;
80647;SDS011;70012;0.000;0.000;2023-05-28T12:46:00;7.50;;;4.32;;
80647;SDS011;70012;0.000;0.000;2023-05-28T12:48:27;6.32;;;4.55;;
80647;SDS011;70012;0.000;0.000;2023-05-28T12:50:54;7.80;;;4.35;;
80647;SDS011;70012;0.000;0.000;2023-05-28T12:53:21;6.82;;;4.50;;
80647;SDS011;70012;0.000;0.000;2023-05-28T12:55:48;5.53;;;3.97;;
80647;SDS011;70012;0.000;0.000;2023-05-28T12:58:14;7.05;;;4.22;;
80647;SDS011;70012;0.000;0.000;2023-05-28T13:00:41;5.88;;;4.25;;
80647;SDS011;70012;0.000;0.000;2023-05-28T13:03:08;7.90;;;4.63;;
80647;SDS011;70012;0.000;0.000;2023-05-28T13:05:36;7.60;;;4.93;;
80647;SDS011;70012;0.000;0.000;2023-05-28T13:08:03;7.05;;;4.07;;
80647;SDS011;70012;0.000;0.000;2023-05-28T13:10:29;8.98;;;3.90;;
80647;SDS011;70012;0.000;0.000;2023-05-28T13:12:56;9.07;;;4.10;;
80647;SDS011;70012;0.000;0.000;2023-05-28T13:15:23;7.05;;;3.85;;
80647;SDS011;70012;0.000;0.000;2023-05-28T13:17:50;7.70;;;4.30;;
80647;SDS011;70012;0.000;0.000;2023-05-28T13:20:17;6.47;;;4.47;;
80647;SDS011;70012;0.000;0.000;2023-05-28T13:22:44;7.35;;;4.28;;
80647;SDS011;70012;0.000;0.000;2023-05-28T13:25:11;7.60;;;4.38;;
80647;SDS011;70012;0.000;0.000;2023-05-28T13:27:38;8.30;;;4.07;;
80647;SDS011;70012;0.000;0.000;2023-05-28T13:30:05;6.35;;;3.90;;
80647;SDS011;70012;0.000;0.000;2023-05-28T13:32:32;7.78;;;4.50;;
80647;SDS011;70012;0.000;0.000;2023-05-28T13:34:59;6.53;;;4.20;;
80647;SDS011;70012;0.000;0.000;2023-05-28T13:37:26;13.23;;;4.22;;
80647;SDS011;70012;0.000;0.000;2023-05-28T13:39:55;8.00;;;4.28;;
80647;SDS011;70012;0.000;0.000;2023-05-28T13:42:23;6.32;;;4.53;;
80647;SDS011;70012;0.000;0.000;2023-05-28T13:44:51;5.57;;;4.10;;
80647;SDS011;70012;0.000;0.000;2023-05-28T13:47:18;7.10;;;4.57;;
80647;SDS011;70012;0.000;0.000;2023-05-28T13:49:47;8.93;;;4.28;;
80647;SDS011;70012;0.000;0.000;2023-05-28T13:52:14;7.70;;;4.60;;
80647;SDS011;70012;0.000;0.000;2023-05-28T13:54:41;5.38;;;3.60;;
80647;SDS011;70012;0.000;0.000;2023-05-28T13:57:09;6.90;;;4.05;;
80647;SDS011;70012;0.000;0.000;2023-05-28T13:59:37;6.18;;;4.30;;
80647;SDS011;70012;0.000;0.000;2023-05-28T14:02:03;5.18;;;3.92;;
80647;SDS011;70012;0.000;0.000;2023-05-28T14:04:31;7.43;;;4.32;;
80647;SDS011;70012;0.000;0.000;2023-05-28T14:06:57;9.20;;;4.70;;
80647;SDS011;70012;0.000;0.000;2023-05-28T14:09:24;5.28;;;3.92;;
80647;SDS011;70012;0.000;0.000;2023-05-28T14:11:51;6.88;;;4.10;;
80647;SDS011;70012;0.000;0.000;2023-05-28T14:14:39;6.82;;;3.72;;
80647;SDS011;70012;0.000;0.000;2023-05-28T14:17:06;6.55;;;4.50;;
80647;SDS011;70012;0.000;0.000;2023-05-28T14:19:32;6.95;;;3.80;;
80647;SDS011;70012;0.000;0.000;2023-05-28T14:21:59;6.50;;;3.95;;
80647;SDS011;70012;0.000;0.000;2023-05-28T14:24:26;6.35;;;3.53;;
80647;SDS011;70012;0.000;0.000;2023-05-28T14:26:56;6.30;;;3.70;;
80647;SDS011;70012;0.000;0.000;2023-05-28T14:29:24;5.68;;;3.85;;
80647;SDS011;70012;0.000;0.000;2023-05-28T14:31:51;7.72;;;3.70;;
80647;SDS011;70012;0.000;0.000;2023-05-28T14:34:18;5.65;;;3.70;;
80647;SDS011;70012;0.000;0.000;2023-05-28T14:36:45;6.35;;;4.13;;
80647;SDS011;70012;0.000;0.000;2023-05-28T14:39:12;5.15;;;4.00;;
80647;SDS011;70012;0.000;0.000;2023-05-28T14:41:40;7.50;;;3.95;;
80647;SDS011;70012;0.000;0.000;2023-05-28T14:44:06;6.93;;;4.35;;
80647;SDS011;70012;0.000;0.000;2023-05-28T14:46:34;5.07;;;3.58;;
80647;SDS011;70012;0.000;0.000;2023-05-28T14:49:04;5.55;;;3.53;;
80647;SDS011;70012;0.000;0.000;2023-05-28T14:51:31;5.47;;;3.70;;
80647;SDS011;70012;0.000;0.000;2023-05-28T14:53:58;6.25;;;4.07;;
80647;SDS011;70012;0.000;0.000;2023-05-28T14:56:25;10.38;;;4.05;;
80647;SDS011;70012;0.000;0.000;2023-05-28T14:58:52;5.70;;;3.78;;
80647;SDS011;70012;0.000;0.000;2023-05-28T15:01:19;6.75;;;3.33;;
80647;SDS011;70012;0.000;0.000;2023-05-28T15:03:46;6.75;;;4.07;;
80647;SDS011;70012;0.000;0.000;2023-05-28T15:06:12;7.53;;;4.20;;
80647;SDS011;70012;0.000;0.000;2023-05-28T15:08:39;7.72;;;3.63;;
80647;SDS011;70012;0.000;0.000;2023-05-28T15:11:08;6.55;;;4.10;;
80647;SDS011;70012;0.000;0.000;2023-05-28T15:13:37;7.60;;;3.90;;
80647;SDS011;70012;0.000;0.000;2023-05-28T15:16:04;5.82;;;3.55;;
80647;SDS011;70012;0.000;0.000;2023-05-28T15:18:31;6.65;;;3.63;;
80647;SDS011;70012;0.000;0.000;2023-05-28T15:20:58;6.65;;;4.07;;
80647;SDS011;70012;0.000;0.000;2023-05-28T15:23:27;6.25;;;3.97;;
80647;SDS011;70012;0.000;0.000;2023-05-28T15:25:53;8.07;;;3.90;;
80647;SDS011;70012;0.000;0.000;2023-05-28T15:28:21;8.48;;;3.60;;
80647;SDS011;70012;0.000;0.000;2023-05-28T15:30:48;9.13;;;3.88;;
80647;SDS011;70012;0.000;0.000;2023-05-28T15:33:15;5.65;;;3.70;;
80647;SDS011;70012;0.000;0.000;2023-05-28T15:35:43;5.22;;;3.75;;
80647;SDS011;70012;0.000;0.000;2023-05-28T15:38:10;6.05;;;3.42;;
80647;SDS011;70012;0.000;0.000;2023-05-28T15:40:37;6.90;;;4.05;;
80647;SDS011;70012;0.000;0.000;2023-05-28T15:43:04;6.55;;;3.58;;